Pacific Dawn — WDA7844 — position and weather

sailwx.info

Track history (hours):
 
Tides and Currents Weather Stations Pressure Air Temp Water Temp Dewpoint Dewpoint Depression Visibility Wind Speed Wind Dir Waves Ship Positions

Pacific Dawn

Owner: Pacific Dawn, L.L.C., Gretna, LA. More information available from US FCC via Universal Licensing System and Coast Guard Vessel Documentation Center.

Last reported at 2018-Jul-16 00:29 UTC. Time now 2018-Jul-21 17:22 UTC.
Position N 29°35' W 090°37'.

Length 30 m; draft 3.5 m.

Type: Towing. MMSI: 366847780.

Date/timePositionNaut miles runAvg speedWind from/ knotsBaromVisibWave heightAir tempDewpointWater temp
2018-Jul-16 00:29N 29°35' W 090°37'4 8.2
2018-Jul-16 00:00N 29°36' W 090°41'3 5.5
2018-Jul-15 23:30N 29°34' W 090°43'138 6.8
2018-Jul-15 03:21N 29°48' W 093°21'411.9
2018-Jul-15 02:59N 29°53' W 093°21'510.5
2018-Jul-15 02:31N 29°58' W 093°20'5 9.7
2018-Jul-15 02:00N 30°02' W 093°20'3 5.1
2018-Jul-15 01:30N 30°05' W 093°20'2 3.5
2018-Jul-15 01:01N 30°04' W 093°21'0 0.0
2018-Jul-15 00:31N 30°04' W 093°21'0 0.0
2018-Jul-15 00:00N 30°04' W 093°21'0 0.0
2018-Jul-14 23:31N 30°04' W 093°21'0 0.0
2018-Jul-14 23:01N 30°04' W 093°21'0 0.0
2018-Jul-14 22:31N 30°04' W 093°21'0 0.0
2018-Jul-14 22:01N 30°04' W 093°21'0 0.0
2018-Jul-14 21:31N 30°04' W 093°21'0 0.0
2018-Jul-14 21:01N 30°04' W 093°21'0 0.0
2018-Jul-14 20:31N 30°04' W 093°21'0 0.0
2018-Jul-14 20:01N 30°04' W 093°21'0 0.0
2018-Jul-14 19:31N 30°04' W 093°21'0 0.0
2018-Jul-14 19:01N 30°04' W 093°21'0 0.0
2018-Jul-14 18:30N 30°04' W 093°21'0 0.0
2018-Jul-14 18:00N 30°04' W 093°21'1 2.4
2018-Jul-14 17:30N 30°05' W 093°20'1 2.3
2018-Jul-14 17:00N 30°05' W 093°19'1 2.6
2018-Jul-14 16:30N 30°04' W 093°20'5 8.9
2018-Jul-14 16:00N 29°60' W 093°20'  
Track history (hours):
 
Tides and Currents Weather Stations Pressure Air Temp Water Temp Dewpoint Dewpoint Depression Visibility Wind Speed Wind Dir Waves Ship Positions

Pacific Dawn

Owner: Pacific Dawn, L.L.C., Gretna, LA. More information available from US FCC via Universal Licensing System and Coast Guard Vessel Documentation Center.

Last reported at 2018-Jul-16 00:29 UTC. Time now 2018-Jul-21 17:22 UTC.
Position N 29°35' W 090°37'.

Length 30 m; draft 3.5 m.

Type: Towing. MMSI: 366847780.

Date/timePositionNaut miles runAvg speedWind from/ knotsBaromVisibWave heightAir tempDewpointWater temp
2018-Jul-16 00:29N 29°35' W 090°37'4 8.2
2018-Jul-16 00:00N 29°36' W 090°41'3 5.5
2018-Jul-15 23:30N 29°34' W 090°43'138 6.8
2018-Jul-15 03:21N 29°48' W 093°21'411.9
2018-Jul-15 02:59N 29°53' W 093°21'510.5
2018-Jul-15 02:31N 29°58' W 093°20'5 9.7
2018-Jul-15 02:00N 30°02' W 093°20'3 5.1
2018-Jul-15 01:30N 30°05' W 093°20'2 3.5
2018-Jul-15 01:01N 30°04' W 093°21'0 0.0
2018-Jul-15 00:31N 30°04' W 093°21'0 0.0
2018-Jul-15 00:00N 30°04' W 093°21'0 0.0
2018-Jul-14 23:31N 30°04' W 093°21'0 0.0
2018-Jul-14 23:01N 30°04' W 093°21'0 0.0
2018-Jul-14 22:31N 30°04' W 093°21'0 0.0
2018-Jul-14 22:01N 30°04' W 093°21'0 0.0
2018-Jul-14 21:31N 30°04' W 093°21'0 0.0
2018-Jul-14 21:01N 30°04' W 093°21'0 0.0
2018-Jul-14 20:31N 30°04' W 093°21'0 0.0
2018-Jul-14 20:01N 30°04' W 093°21'0 0.0
2018-Jul-14 19:31N 30°04' W 093°21'0 0.0
2018-Jul-14 19:01N 30°04' W 093°21'0 0.0
2018-Jul-14 18:30N 30°04' W 093°21'0 0.0
2018-Jul-14 18:00N 30°04' W 093°21'1 2.4
2018-Jul-14 17:30N 30°05' W 093°20'1 2.3
2018-Jul-14 17:00N 30°05' W 093°19'1 2.6
2018-Jul-14 16:30N 30°04' W 093°20'5 8.9
2018-Jul-14 16:00N 29°60' W 093°20'  

Dump ship's entire track history